• Join FlightAware (Why Join?)
  • Login
  • US Flag 
07:46AM EDT


 

Airport Tracker/Info


-or-


 

Live Flight TrackerFlight Track Log ✈ FSR411 ✈ 04-Jan-2014 ✈ KCMI - KAPF

Flight Track Log - Related Links

Times and Time Zones

All times are in EST time to prevent confusion due to time zone crossing. See the FSR411 flight status page for this flight to view local times or setup timezone preferences in your user account.

Time Position Orientation Groundspeed Altitude Reporting Facility
EST Latitude Longitude Course Direction KTS MPH feet Rate Location/Type
07:58AM 39.9711 -88.2250 162° South 228 262 41,000  Level Kansas City Center
07:59AM 39.9119 -88.2000 162° South 272 313 6,900 -21,120 Descending Kansas City Center
08:00AM 39.8700 -88.1828 163° South 303 349 9,000 1,980 Climbing Indianapolis Center
08:01AM 39.8031 -88.1497 159° South 261 300 10,000 720 Climbing Indianapolis Center
08:01AM 39.7575 -88.1289 161° South 284 327 10,100 60 Climbing Kansas City Center
08:02AM 39.7217 -88.1139 162° South 305 351 10,100 1,800 Level Indianapolis Center
08:03AM 39.6364 -88.0761 161° South 322 371 12,900 3,060 Climbing Indianapolis Center
08:04AM 39.5450 -88.0297 159° South 346 398 16,400 3,660 Climbing Indianapolis Center
08:05AM 39.4256 -87.9756 161° South 376 433 20,500 3,420 Climbing Indianapolis Center
08:06AM 39.3219 -87.9267 160° South 391 450 23,500 2,940 Climbing Indianapolis Center
08:07AM 39.2153 -87.8800 161° South 401 461 26,500 2,400 Climbing Indianapolis Center
08:08AM 39.1078 -87.8286 160° South 407 468 28,400 1,740 Climbing Indianapolis Center
08:09AM 38.9925 -87.7769 161° South 433 498 30,100 1,980 Climbing Indianapolis Center
08:10AM 38.8775 -87.7244 160° South 436 502 32,500 2,100 Climbing Indianapolis Center
08:11AM 38.7642 -87.6747 161° South 431 496 34,500 1,800 Climbing Indianapolis Center
08:12AM 38.6539 -87.6253 161° South 421 484 36,300 1,620 Climbing Indianapolis Center
08:13AM 38.5444 -87.5761 161° South 417 480 37,800 1,440 Climbing Indianapolis Center
08:14AM 38.4375 -87.5281 161° South 410 472 39,300 1,260 Climbing Indianapolis Center
08:15AM 38.3319 -87.4814 161° South 404 465 40,400 780 Climbing Indianapolis Center
08:16AM 38.2072 -87.4278 161° South 397 457 41,000 240 Climbing Indianapolis Center
08:17AM 38.0981 -87.3786 160° South 416 479 41,000  Level Indianapolis Center
08:18AM 37.9839 -87.3297 161° South 431 496 41,000  Level Indianapolis Center
08:19AM 37.8678 -87.2778 161° South 440 506 41,000  Level Indianapolis Center
08:20AM 37.7575 -87.2306 161° South 441 507 41,000  Level Indianapolis Center
08:21AM 37.6350 -87.1767 161° South 441 507 41,000  Level Indianapolis Center
08:22AM 37.5256 -87.1303 161° South 435 501 41,000  Level Indianapolis Center
08:23AM 37.3903 -87.0733 162° South 434 499 41,000  Level Indianapolis Center
08:24AM 37.2744 -87.0222 161° South 436 502 41,000  Level Indianapolis Center
08:25AM 37.1572 -86.9731 162° South 438 504 41,000  Level Indianapolis Center
08:26AM 37.0786 -86.9375 160° South 440 506 41,000  Level Memphis Center
08:27AM 36.9608 -86.8869 161° South 442 509 41,000  Level Memphis Center
08:28AM 36.8422 -86.8367 161° South 443 510 41,000  Level Memphis Center
08:29AM 36.7231 -86.7856 161° South 446 513 41,000  Level Memphis Center
08:30AM 36.6042 -86.7353 161° South 445 512 41,000  Level Memphis Center
08:31AM 36.4844 -86.6856 162° South 444 511 41,000  Level Memphis Center
08:32AM 36.3636 -86.6344 161° South 446 513 41,000  Level Memphis Center
08:33AM 36.2428 -86.5847 162° South 447 514 41,000  Level Memphis Center
08:34AM 36.1239 -86.5356 162° South 445 512 41,000  Level Memphis Center
08:35AM 36.0056 -86.4856 161° South 443 510 41,000  Level Memphis Center
08:36AM 35.8886 -86.4367 161° South 440 506 41,000  Level Memphis Center
08:37AM 35.7706 -86.3894 162° South 440 506 41,000  Level Memphis Center
08:38AM 35.6561 -86.3406 161° South 434 499 41,000  Level Memphis Center
08:39AM 35.5764 -86.3086 162° South 438 504 41,000  Level Atlanta Center
08:40AM 35.4644 -86.2647 162° South 438 504 41,000  Level Atlanta Center
08:41AM 35.3506 -86.2158 161° South 433 498 41,000  Level Atlanta Center
08:42AM 35.2492 -86.1750 162° South 433 498 41,000  Level Atlanta Center
08:43AM 35.1372 -86.1342 163° South 433 498 41,000  Level Atlanta Center
08:44AM 35.0253 -86.0856 160° South 433 498 41,000  Level Atlanta Center
08:45AM 34.9008 -86.0344 161° South 433 498 41,000  Level Atlanta Center
08:46AM 34.7869 -85.9861 161° South 433 498 41,000  Level Atlanta Center
08:47AM 34.6728 -85.9406 162° South 433 498 41,000  Level Atlanta Center
08:48AM 34.5567 -85.8953 162° South 439 505 41,000  Level Atlanta Center
08:49AM 34.4447 -85.8497 161° South 439 505 41,000  Level Atlanta Center
08:50AM 34.3325 -85.8072 163° South 433 498 41,000  Level Atlanta Center
08:51AM 34.2206 -85.7622 162° South 428 493 41,000  Level Atlanta Center
08:52AM 34.1042 -85.7197 163° South 433 498 41,000  Level Atlanta Center
08:53AM 34.0025 -85.6775 161° South 433 498 41,000  Level Atlanta Center
08:54AM 33.8903 -85.6353 163° South 433 498 41,000  Level Atlanta Center
08:55AM 33.7761 -85.5908 162° South 433 498 41,000  Level Atlanta Center
08:56AM 33.6619 -85.5489 163° South 433 498 41,000  Level Atlanta Center
08:57AM 33.5475 -85.5044 162° South 433 498 41,000  Level Atlanta Center
08:58AM 33.4353 -85.4603 162° South 426 490 41,000  Level Atlanta Center
08:59AM 33.3211 -85.4136 161° South 426 490 41,000  Level Atlanta Center
09:00AM 33.2089 -85.3719 163° South 426 490 41,000  Level Atlanta Center
09:01AM 33.0944 -85.3281 162° South 426 490 41,000  Level Atlanta Center
09:02AM 32.9803 -85.2794 160° South 431 496 41,000  Level Atlanta Center
09:03AM 32.8658 -85.2333 161° South 431 496 41,000  Level Atlanta Center
09:04AM 32.7514 -85.1897 162° South 431 496 41,000  Level Atlanta Center
09:05AM 32.6267 -85.1414 162° South 431 496 41,000  Level Atlanta Center
09:06AM 32.5144 -85.1006 163° South 431 496 41,000  Level Atlanta Center
09:07AM 32.3978 -85.0547 162° South 431 496 41,000  Level Atlanta Center
09:08AM 32.2856 -85.0117 162° South 431 496 41,000  Level Atlanta Center
09:09AM 32.1061 -84.9453 163° South 451 519 41,000  Level Jacksonville Center
09:10AM 31.9939 -84.9061 164° South 446 513 41,000  Level Jacksonville Center
09:11AM 31.8797 -84.8619 162° South 434 499 41,000  Level Jacksonville Center
09:12AM 31.7697 -84.8231 163° South 420 483 41,000  Level Jacksonville Center
09:13AM 31.6536 -84.7792 162° South 420 483 41,000  Level Jacksonville Center
09:14AM 31.5433 -84.7381 162° South 425 489 41,000  Level Jacksonville Center
09:15AM 31.4292 -84.6967 163° South 425 489 41,000  Level Jacksonville Center
09:16AM 31.3172 -84.6533 162° South 425 489 41,000  Level Jacksonville Center
09:17AM 31.2072 -84.6025 158° South 425 489 41,000  Level Jacksonville Center
09:18AM 31.0928 -84.5569 161° South 425 489 41,000  Level Jacksonville Center
09:19AM 30.9808 -84.5064 159° South 425 489 41,000  Level Jacksonville Center
09:20AM 30.8686 -84.4586 160° South 425 489 41,000  Level Jacksonville Center
09:21AM 30.7586 -84.4108 160° South 425 489 41,000  Level Jacksonville Center
09:22AM 30.6547 -84.3656 159° South 430 495 41,000  Level Jacksonville Center
09:23AM 30.5447 -84.3156 159° South 430 495 41,000  Level Jacksonville Center
09:24AM 30.4303 -84.2658 159° South 430 495 41,000  Level Jacksonville Center
09:25AM 30.3181 -84.2186 160° South 430 495 41,000  Level Jacksonville Center
09:26AM 30.2058 -84.1714 160° South 430 495 41,000  Level Jacksonville Center
09:27AM 30.0936 -84.1242 160° South 430 495 41,000  Level Jacksonville Center
09:28AM 29.9833 -84.0794 161° South 425 489 41,000  Level Jacksonville Center
09:29AM 29.8586 -84.0278 160° South 425 489 41,000  Level Jacksonville Center
09:30AM 29.7461 -83.9786 159° South 425 489 41,000  Level Jacksonville Center
09:31AM 29.6358 -83.9319 160° South 425 489 41,000  Level Jacksonville Center
09:32AM 29.5236 -83.8831 159° South 425 489 41,000 -480 Level Jacksonville Center
09:33AM 29.4153 -83.8367 160° South 425 489 40,100 -960 Descending Jacksonville Center
09:34AM 29.3031 -83.7903 160° South 425 489 39,100 -600 Descending Jacksonville Center
09:35AM 29.1969 -83.7467 160° South 420 483 39,000 -60 Descending Jacksonville Center
09:36AM 29.0886 -83.7006 160° South 420 483 39,000  Level Jacksonville Center
09:37AM 28.9783 -83.6569 161° South 420 483 39,000  Level Jacksonville Center
09:38AM 28.8700 -83.6108 160° South 420 483 39,000 -120 Level Jacksonville Center
09:39AM 28.7617 -83.5653 160° South 420 483 38,800 -660 Descending Jacksonville Center
09:42AM 28.5094 -83.4603 160° South 411 473 36,800 -840 Descending Miami Center
09:43AM 28.4031 -83.4186 161° South 411 473 36,000 -900 Descending Miami Center
09:44AM 28.2967 -83.3747 160° South 411 473 35,100 -540 Descending Miami Center
09:45AM 28.1989 -83.3689 177° South 406 467 35,000 -840 Descending Miami Center
09:46AM 28.0922 -83.3744 183° South 386 444 33,500 -1,920 Descending Miami Center
09:47AM 27.9797 -83.3703 178° South 391 450 31,200 -2,340 Descending Miami Center
09:48AM 27.8592 -83.3658 178° South 412 474 28,900 -2,280 Descending Miami Center
09:49AM 27.7486 -83.3642 179° South 418 481 26,700 -1,920 Descending Miami Center
09:50AM 27.6319 -83.3622 179° South 418 481 25,100 -1,500 Descending Miami Center
09:51AM 27.5153 -83.3603 179° South 405 466 23,800 -1,200 Descending Miami Center
09:52AM 27.4211 -83.3200 159° South 374 430 22,700 -1,200 Descending Miami Center
09:53AM 27.3508 -83.2131 126° Southeast 372 428 21,400 -1,260 Descending Miami Center
09:54AM 27.2889 -83.1022 122° Southeast 389 448 20,200 -1,200 Descending Miami Center
09:55AM 27.2264 -82.9986 124° Southeast 400 460 19,100 -1,200 Descending Miami Center
09:56AM 27.1622 -82.8903 124° Southeast 412 474 17,900 -1,140 Descending Miami Center
09:57AM 27.0867 -82.8025 134° Southeast 412 474 16,900 -1,080 Descending Miami Center
09:58AM 26.9975 -82.7372 147° Southeast 392 451 15,800 -1,200 Descending Miami Center
09:59AM 26.9106 -82.6653 144° Southeast 392 451 14,600 -1,200 Descending Miami Center
10:00AM 26.8364 -82.5872 137° Southeast 381 438 13,500 -1,020 Descending Miami Center
10:01AM 26.7683 -82.5142 136° Southeast 376 433 12,600 -1,080 Descending Miami Center
10:02AM 26.6861 -82.4267 136° Southeast 376 433 11,400 -1,260 Descending Miami Center
10:03AM 26.6156 -82.3606 140° Southeast 349 402 10,100 -1,500 Descending Miami Center
10:04AM 26.5506 -82.3158 148° Southeast 300 345 8,400 -1,320 Descending Miami Center
10:05AM 26.4856 -82.2639 144° Southeast 285 328 7,500 -1,080 Descending Miami Center
10:06AM 26.4206 -82.2194 149° Southeast 280 322 6,300 -1,140 Descending Miami Center
10:07AM 26.3575 -82.1725 146° Southeast 275 316 5,300 -660 Descending Miami Center
10:08AM 26.2964 -82.1303 148° Southeast 275 316 5,000 -300 Descending Miami Center
10:10AM 26.1317 -81.9992 156° South  Level FlightAware Approximate
10:17AM 26.1524 -81.7756 66° East  Level Estimated
10:18AM 26.1524 -81.7756 66° East  Level Estimated
10:19AM 26.1524 -81.7756 66° East  Level Estimated
10:20AM 26.1524 -81.7756 66° East  Level Estimated
10:21AM 26.1524 -81.7756 66° East  Level Estimated
10:22AM 26.1524 -81.7756 66° East  Level Estimated
10:23AM 26.1524 -81.7756 66° East  Level Estimated
10:24AM 26.1524 -81.7756 66° East  Level Estimated